createdAt,value
2022-10-23T14:37:11.322Z,19.00
2022-10-23T14:39:48.916Z,19.05
2022-10-23T14:42:21.922Z,18.96
2022-10-23T14:44:54.221Z,19.82
2022-10-23T14:47:26.250Z,19.41
2022-10-23T14:49:58.541Z,19.41
2022-10-23T14:52:30.612Z,31.37
2022-10-23T14:55:02.977Z,44.62
2022-10-23T14:57:35.314Z,24.28
2022-10-23T15:00:12.818Z,19.26
2022-10-23T15:02:50.401Z,19.23
2022-10-23T15:05:25.143Z,18.98
2022-10-23T15:08:02.697Z,19.31
2022-10-23T15:10:42.646Z,19.24
2022-10-23T15:13:14.737Z,18.34
2022-10-23T15:15:47.076Z,20.62
2022-10-23T15:18:27.386Z,21.95
2022-10-23T15:21:05.749Z,19.99
2022-10-23T15:23:44.008Z,19.72
2022-10-23T15:26:21.401Z,19.49
2022-10-23T15:28:56.461Z,18.47
2022-10-23T15:32:03.141Z,19.07
2022-10-23T15:34:36.313Z,18.62
2022-10-23T15:37:13.577Z,18.01
2022-10-23T15:39:48.019Z,16.51
2022-10-23T15:42:20.310Z,16.30
2022-10-23T15:44:52.342Z,15.76
2022-10-23T16:47:31.554Z,85.67
2022-10-23T16:50:03.920Z,23.62
2022-10-23T16:52:35.989Z,24.69
2022-10-23T16:55:08.421Z,25.38
2022-10-23T17:47:47.243Z,45.19
2022-10-23T17:49:24.878Z,25.81
2022-10-23T17:51:09.399Z,23.75
2022-10-23T17:52:44.098Z,21.47
2022-10-23T17:54:16.392Z,20.93
2022-10-23T17:55:48.496Z,21.29
2022-10-23T17:57:20.645Z,20.66
2022-10-23T17:58:55.722Z,21.05
2022-10-23T18:00:30.159Z,21.94
2022-10-23T18:02:02.623Z,22.96
2022-10-23T18:03:35.281Z,23.40
2022-10-23T18:05:14.563Z,22.66
2022-10-23T18:06:47.802Z,21.10
2022-10-23T18:08:24.771Z,22.98
2022-10-23T18:09:59.371Z,21.86
2022-10-23T18:11:33.272Z,21.92
2022-10-23T18:13:05.534Z,21.47
2022-10-23T18:14:38.229Z,21.62
2022-10-23T18:16:15.234Z,22.20
2022-10-23T18:17:47.325Z,21.93
2022-10-23T18:19:19.805Z,22.00
2022-10-23T18:20:54.302Z,21.76
2022-10-23T18:22:26.497Z,21.67
2022-10-23T18:24:02.335Z,21.56
2022-10-23T18:25:42.002Z,22.45
2022-10-23T18:27:16.382Z,21.60
2022-10-23T18:28:49.972Z,22.60
2022-10-23T18:30:22.052Z,21.59
2022-10-23T18:31:58.444Z,22.00
2022-10-23T18:33:35.640Z,22.38
2022-10-23T18:35:09.864Z,21.56
2022-10-23T18:36:42.149Z,21.84
2022-10-23T18:38:15.336Z,22.00
2022-10-23T18:39:47.382Z,21.75
2022-10-23T18:41:19.913Z,21.59
2022-10-23T18:42:52.020Z,22.45
2022-10-23T18:44:29.067Z,21.65
2022-10-23T18:46:01.229Z,24.86
2022-10-23T18:47:33.351Z,23.58
2022-10-23T18:49:07.891Z,26.82
2022-10-23T18:50:40.048Z,25.32
2022-10-23T18:52:12.208Z,25.22
2022-10-23T18:53:47.638Z,23.92
2022-10-23T18:55:20.381Z,25.10
2022-10-23T18:56:52.549Z,23.41
2022-10-23T18:58:27.488Z,24.03
2022-10-23T19:00:02.202Z,23.43
2022-10-23T19:01:34.952Z,23.06
2022-10-23T19:03:08.333Z,23.38
2022-10-23T19:04:42.911Z,22.55
2022-10-23T19:06:20.328Z,23.60
2022-10-23T19:07:55.428Z,24.49
2022-10-23T19:09:31.736Z,26.33
2022-10-23T19:11:07.430Z,26.80
2022-10-23T19:12:41.724Z,26.91
2022-10-23T19:14:14.100Z,26.45
2022-10-23T19:15:48.380Z,25.76
2022-10-23T19:17:25.804Z,25.69
2022-10-23T19:19:03.485Z,24.71
2022-10-23T19:20:37.925Z,24.76
2022-10-23T19:22:16.913Z,24.26
2022-10-23T19:25:52.810Z,26.01
2022-10-23T19:28:27.290Z,26.89
2022-10-23T19:31:02.629Z,29.39
2022-10-23T19:33:39.741Z,27.07
2022-10-23T19:36:14.418Z,26.00
2022-10-23T19:38:48.874Z,26.73
2022-10-23T19:41:20.817Z,27.71
2022-10-23T19:43:57.754Z,28.25
2022-10-23T19:46:29.793Z,28.33
2022-10-23T19:49:01.917Z,28.38
2022-10-23T19:51:39.236Z,29.36
2022-10-23T19:54:14.184Z,29.17
2022-10-23T19:56:46.197Z,29.82
2022-10-23T19:59:23.096Z,31.01
2022-10-23T20:01:57.522Z,30.85
2022-10-23T20:04:30.434Z,31.15
2022-10-23T20:07:02.522Z,31.86
2022-10-23T20:09:37.654Z,30.81
2022-10-23T20:12:10.248Z,30.28
2022-10-23T20:14:43.679Z,32.41
2022-10-23T20:17:18.121Z,31.83
2022-10-23T20:19:52.739Z,31.25
2022-10-23T20:22:27.202Z,30.60
2022-10-23T20:25:01.713Z,30.68
2022-10-23T20:27:38.638Z,30.53
2022-10-23T20:30:13.924Z,30.99
2022-10-23T20:32:48.128Z,31.64
2022-10-23T20:35:22.654Z,32.30
2022-10-23T20:37:57.096Z,31.74
2022-10-23T20:40:32.367Z,31.44
2022-10-23T20:43:06.679Z,33.24
2022-10-23T20:45:38.769Z,32.18
2022-10-23T20:48:13.189Z,33.79
2022-10-23T20:50:45.325Z,33.60
2022-10-23T20:53:17.234Z,34.97
2022-10-23T20:55:51.710Z,34.54
2022-10-23T20:58:23.713Z,35.38
2022-10-23T21:06:20.344Z,42.91
2022-10-23T21:08:56.661Z,42.51
2022-10-23T21:11:28.575Z,45.42
2022-10-23T21:14:00.804Z,44.30
2022-10-23T21:16:44.287Z,44.64
2022-10-23T21:19:16.393Z,44.35
2022-10-23T21:21:50.692Z,46.67
2022-10-23T21:24:25.185Z,44.96
2022-10-23T21:26:57.066Z,45.72
2022-10-23T21:29:29.177Z,48.94
2022-10-23T21:32:04.063Z,48.53
2022-10-23T21:34:41.130Z,49.82
2022-10-23T21:37:14.393Z,49.00
2022-10-23T21:39:47.224Z,49.77
2022-10-23T21:42:22.072Z,49.72
2022-10-23T21:44:56.325Z,47.57
2022-10-23T21:47:28.276Z,48.43
2022-10-23T21:50:03.584Z,48.53
2022-10-23T21:52:35.706Z,47.97
2022-10-23T21:55:10.352Z,47.31
2022-10-23T21:57:42.329Z,50.87
2022-10-23T22:00:15.656Z,49.52
2022-10-23T22:02:52.428Z,49.90
2022-10-23T22:05:24.596Z,50.09
2022-10-23T22:07:56.486Z,49.18
2022-10-23T22:10:31.328Z,49.13
2022-10-23T22:13:06.360Z,49.41
2022-10-23T22:15:38.531Z,50.38
2022-10-23T22:18:12.903Z,49.43
2022-10-23T22:20:45.074Z,47.99
2022-10-23T22:23:19.432Z,48.65
2022-10-23T22:25:51.508Z,46.94
2022-10-23T22:28:28.395Z,46.48
2022-10-23T22:31:01.338Z,46.73
2022-10-23T22:33:35.665Z,47.49
2022-10-23T22:36:08.154Z,47.56
2022-10-23T22:38:40.880Z,44.95
2022-10-23T22:41:18.487Z,47.96
2022-10-23T22:43:54.615Z,45.22
2022-10-23T22:46:28.321Z,46.40
2022-10-23T22:49:02.831Z,46.04
2022-10-23T22:51:39.679Z,46.49
2022-10-23T22:54:16.412Z,48.42
2022-10-23T22:56:53.507Z,48.64
2022-10-23T22:59:25.548Z,47.02
2022-10-23T23:02:02.955Z,47.66
2022-10-23T23:04:39.030Z,48.26
2022-10-23T23:07:13.650Z,48.05
2022-10-23T23:09:47.799Z,47.66
2022-10-23T23:12:27.266Z,47.83
2022-10-23T23:15:01.530Z,46.72
2022-10-23T23:17:36.066Z,47.33
2022-10-23T23:20:10.842Z,47.35
2022-10-23T23:22:43.104Z,46.35
2022-10-23T23:25:20.341Z,45.91
2022-10-23T23:27:54.890Z,46.22
2022-10-23T23:30:26.837Z,46.29
2022-10-23T23:33:01.172Z,46.77
2022-10-23T23:35:33.884Z,45.73
2022-10-23T23:38:14.729Z,46.12
2022-10-23T23:40:54.480Z,46.49
2022-10-23T23:43:26.617Z,46.39
2022-10-23T23:45:59.132Z,45.47
2022-10-23T23:48:33.380Z,45.94
2022-10-23T23:51:05.698Z,46.42
2022-10-23T23:53:38.559Z,45.81
2022-10-23T23:56:12.956Z,46.02
2022-10-23T23:58:47.264Z,45.16
